Flight Track Log - Related Links

Times and Time Zones

All times are in EDT time to prevent confusion due to time zone crossing. See the TCF3476 flight status page for this flight to view local times or setup timezone preferences in your user account.

Time Position Orientation Groundspeed Altitude Reporting Facility
EDT Latitude Longitude Course Direction KTS MPH feet Rate Location/Type
Wed 06:12:43 AM 45.3000 -75.6667 198° South 100 115 400  Level Montreal Center
Wed 06:13:43 AM 45.3333 -75.6167 47° Northeast 180 207 2,000 1,750 Climbing Montreal Center
Wed 06:14:43 AM 45.3667 -75.5333 60° Northeast 240 276 3,900 2,100 Climbing Montreal Center
Wed 06:15:00 AM 44.9935 -75.7308 190° South  Level FlightAware Approximate
Wed 06:15:43 AM 45.3167 -75.4667 137° Southeast 230 265 6,200  Level Montreal Center
Wed 06:16:00 AM 44.8897 -75.7783 197° South  Level FlightAware Approximate
Wed 06:16:43 AM 45.2667 -75.5167 215° Southwest 250 288 8,500  Level Montreal Center
Wed 06:17:00 AM 44.7922 -75.8193 193° South  Level FlightAware Approximate
Wed 06:17:43 AM 45.2000 -75.5667 208° Southwest 260 299 11,300  Level Montreal Center
Wed 06:18:00 AM 44.6944 -75.8581 198° South  Level FlightAware Approximate
Wed 06:18:43 AM 45.1333 -75.6167 208° Southwest 310 357 13,000  Level Montreal Center
Wed 06:19:43 AM 45.0333 -75.6333 187° South 330 380 15,300 2,350 Climbing Montreal Center
Wed 06:20:43 AM 44.9500 -75.6833 203° Southwest 340 391 17,700 2,200 Climbing Montreal Center
Wed 06:21:43 AM 44.8500 -75.7167 193° South 350 403 19,700 2,050 Climbing Montreal Center
Wed 06:22:43 AM 44.7500 -75.7333 187° South 360 414 21,800 2,000 Climbing Montreal Center
Wed 06:23:43 AM 44.6500 -75.7500 187° South 370 426 23,700 1,600 Climbing Montreal Center
Wed 06:24:43 AM 44.5500 -75.8000 200° South 380 437 25,000 1,400 Climbing Montreal Center
Wed 06:25:43 AM 44.4333 -75.8333 192° South 390 449 26,500 1,179 Climbing Montreal Center
Wed 06:26:40 AM 44.3628 -75.8525 191° South 397 457 27,300 769 Climbing Boston Center
Wed 06:27:40 AM 44.2386 -75.8917 193° South 412 474 28,000 350 Climbing Boston Center
Wed 06:28:40 AM 44.1483 -75.9183 192° South 412 474 28,000  Level Boston Center
Wed 06:29:40 AM 44.0136 -75.9594 192° South 412 474 28,000  Level Boston Center
Wed 06:30:40 AM 43.9083 -75.9908 192° South 412 474 28,000  Level Boston Center
Wed 06:31:40 AM 43.7992 -76.0217 192° South 407 468 28,000  Level Boston Center
Wed 06:32:40 AM 43.6897 -76.0553 193° South 407 468 28,000  Level Boston Center
Wed 06:33:40 AM 43.5803 -76.0889 193° South 407 468 28,000  Level Boston Center
Wed 06:34:40 AM 43.4708 -76.1197 192° South 407 468 28,000  Level Boston Center
Wed 06:36:43 AM 43.2333 -76.1833 191° South 400 460 28,000  Level Montreal Center
Wed 06:37:02 AM 43.2086 -76.1961 201° Southwest 413 475 28,000  Level Cleveland Center
Wed 06:38:02 AM 43.1067 -76.2547 203° Southwest 408 470 28,000  Level Cleveland Center
Wed 06:39:02 AM 43.0114 -76.3322 211° Southwest 395 455 28,000  Level Cleveland Center
Wed 06:40:02 AM 42.9183 -76.4094 211° Southwest 395 455 28,000  Level Cleveland Center
Wed 06:41:02 AM 42.8253 -76.4836 210° Southwest 395 455 28,000  Level Cleveland Center
Wed 06:41:39 AM 42.7792 -76.5208 211° Southwest 397 457 28,000  Level New York Center
Wed 06:42:40 AM 42.6883 -76.5944 211° Southwest 390 449 28,000  Level New York Center
Wed 06:43:41 AM 42.5928 -76.6706 210° Southwest 396 456 28,000  Level New York Center
Wed 06:44:39 AM 42.4994 -76.7492 212° Southwest 396 456 28,000  Level New York Center
Wed 06:45:39 AM 42.4061 -76.8250 211° Southwest 396 456 28,000  Level New York Center
Wed 06:46:40 AM 42.3131 -76.8978 210° Southwest 396 456 28,000  Level New York Center
Wed 06:47:39 AM 42.2172 -76.9756 211° Southwest 401 461 28,000  Level New York Center
Wed 06:48:38 AM 42.1239 -77.0508 211° Southwest 401 461 28,000  Level New York Center
Wed 06:49:39 AM 42.0217 -77.1303 210° Southwest 401 461 28,000  Level New York Center
Wed 06:50:40 AM 41.9281 -77.2078 212° Southwest 401 461 28,000  Level New York Center
Wed 06:51:39 AM 41.8347 -77.2794 210° Southwest 401 461 28,000  Level New York Center
Wed 06:52:40 AM 41.7431 -77.3539 211° Southwest 401 461 28,000  Level New York Center
Wed 06:53:40 AM 41.6517 -77.4256 210° Southwest 401 461 28,000  Level New York Center
Wed 06:54:39 AM 41.5556 -77.5019 211° Southwest 401 461 28,000 -99 Level New York Center
Wed 06:55:41 AM 41.4619 -77.5756 211° Southwest 401 461 27,800 -787 Descending New York Center
Wed 06:56:41 AM 41.3681 -77.6464 210° Southwest 401 461 26,400 -1,068 Descending New York Center
Wed 06:57:39 AM 41.2786 -77.7175 211° Southwest 401 461 25,700 -706 Descending New York Center
Wed 06:58:40 AM 41.1869 -77.7853 209° Southwest 391 450 25,000 -344 Descending New York Center
Wed 06:59:41 AM 41.0997 -77.8533 210° Southwest 386 444 25,000  Level New York Center
Wed 07:00:40 AM 41.0100 -77.9211 210° Southwest 380 437 25,000 -202 Level New York Center
Wed 07:01:40 AM 40.9083 -77.9517 193° South 374 430 24,600 -1,000 Descending New York Center
Wed 07:02:40 AM 40.8100 -77.8864 153° Southeast 361 415 23,000 -1,600 Descending New York Center
Wed 07:03:40 AM 40.7200 -77.7867 140° Southeast 378 435 21,400 -1,600 Descending New York Center
Wed 07:04:40 AM 40.6297 -77.6925 142° Southeast 391 450 19,800 -1,563 Descending New York Center
Wed 07:05:39 AM 40.5453 -77.6022 141° Southeast 416 479 18,300 -900 Descending New York Center
Wed 07:06:40 AM 40.4511 -77.5028 141° Southeast 421 484 18,000 -957 Descending New York Center
Wed 07:08:47 AM 40.2833 -77.3167 140° Southeast 366 421 15,300 -1,368 Descending Potomac TRACON
Wed 07:09:53 AM 40.1833 -77.2500 153° Southeast 361 415 13,600 -1,500 Descending Potomac TRACON
Wed 07:10:47 AM 40.1167 -77.2500 180° South 321 369 12,300 -1,474 Descending Potomac TRACON
Wed 07:11:47 AM 40.0167 -77.2667 187° South 323 372 10,800 -1,211 Descending Potomac TRACON
Wed 07:12:41 AM 39.9333 -77.2833 189° South 339 390 10,000 -400 Descending Potomac TRACON
Wed 07:13:47 AM 39.8333 -77.3000 187° South 339 390 10,000  Level Potomac TRACON
Wed 07:14:36 AM 39.7667 -77.3167 191° South 332 382 10,000  Level Potomac TRACON
Wed 07:15:36 AM 39.6833 -77.3333 189° South 279 321 10,000 -350 Level Potomac TRACON
Wed 07:16:36 AM 39.6000 -77.3500 189° South 278 320 9,300 -1,000 Descending Potomac TRACON
Wed 07:17:36 AM 39.5333 -77.3667 191° South 269 310 8,000 -895 Descending Potomac TRACON
Wed 07:18:30 AM 39.4833 -77.4000 207° Southwest 216 249 7,600 -842 Descending Potomac TRACON
Wed 07:19:30 AM 39.4167 -77.4167 191° South 207 238 6,400 -1,150 Descending Potomac TRACON
Wed 07:20:30 AM 39.3667 -77.4500 207° Southwest 208 239 5,300 -737 Descending Potomac TRACON
Wed 07:21:24 AM 39.3167 -77.4500 180° South 210 242 5,000 -157 Descending Potomac TRACON
Wed 07:22:25 AM 39.2667 -77.4500 180° South 211 243 5,000  Level Potomac TRACON
Wed 07:23:25 AM 39.2000 -77.4500 180° South 214 246 5,000 -526 Level Potomac TRACON
Wed 07:24:19 AM 39.1500 -77.4500 180° South 216 249 4,000 -1,263 Descending Potomac TRACON
Wed 07:25:19 AM 39.0833 -77.4500 180° South 215 247 2,600 -1,190 Descending Potomac TRACON
Wed 07:26:25 AM 39.0333 -77.4500 180° South 168 193 1,500 -900 Descending Potomac TRACON
Wed 07:27:19 AM 39.0000 -77.4667 201° Southwest 123 142 800 -778 Descending Potomac TRACON

Login

Don't have an account? Register now (free) for customized features, flight alerts, and more!